Bay Terrace, New York
Current Conditions -  °F | °C
As of 7:51 AM on Thursday 23 Oct 2014 (Local Time) from KLGA Reporting Station
Overcast Overcast  
Wind Chill: 51°   Ceiling: 1700
Heat Index: 51°   Visibility: 6mi
Dew Point: 46°   Wind: 23mph
Humidity: 83%   Direction: 350°N
Pressure: 29.69"   Gusts: 33mph
Location:  40.7825°N, 73.7809°W
Report Text: KLGA 231151Z 35020G29KT 6SM BKN017 OVC024 11/08 A2969 RMK AO2 PK WND 35029/1149 RAB1056E51 SLP054 P0003 60009 70100 T01060078 10117 20106 51001
Loading
Personal Weather Stations






























Interactive Weather Map New forecast layout! Learn more

10-Day Weather Forecast

Advertisements
Track Severe Weather on mobile